Decoded Metar for KCKM ( in ) (IATA:) | Meteo·Mobile Aviation Weather
aviador You're here:

KCKM Decoded Metar

in
Report Time2019-02-16 06:55:00
UTC Time2019-02-16 07:18:18
Flight Rules ifr IFR
Wind360° at 18 Gusting to 24 kt
W.Decomp.*RWY 36: 18.0 kt HW 0 kt LCW
Visibility9999 m
Phenomena:N/A
Clouds:Overcast 008 Hf
Ceiling800 ft
Temp03°C
Dew Point03°C (100% RH)
AAT-5.0°C
QNH1013 hPa
Raw Report
KCKM 160655Z AUTO 36018G24KT 10SM OVC008 03/03 A2990 RMK A01=

Extra information for KCKM:More info

Social comments